Time;durP1;ratioP1;P1;durP2;ratioP2;P2;SDS_P1;SDS_P2;PMS_P1;PMS_P2;Temp;Humidity;BMP_temperature;BMP_pressure;BME280_temperature;BME280_humidity;BME280_pressure;Samples;Min_cycle;Max_cycle;Signal;HPM_P1;HPM_P2
2022/10/04 00:02:23;;;;;;;5.25;2.08;;;;;;;;;;5049806;28;20028;-75
2022/10/04 00:05:12;;;;;;;6.13;2.08;;;;;;;;;;5050407;28;20071;-73
2022/10/04 00:07:46;;;;;;;5.60;2.30;;;;;;;;;;5050212;28;20025;-73
2022/10/04 00:10:21;;;;;;;6.38;2.08;;;;;;;;;;5050401;28;20063;-75
2022/10/04 00:12:58;;;;;;;5.55;2.00;;;;;;;;;;5050081;28;20067;-74
2022/10/04 00:15:31;;;;;;;4.72;2.10;;;;;;;;;;5050464;28;20020;-75
2022/10/04 00:18:00;;;;;;;2.90;1.77;;;;;;;;;;5049891;28;20493;-74
2022/10/04 00:20:52;;;;;;;4.97;2.10;;;;;;;;;;5050292;28;20021;-73
2022/10/04 00:23:24;;;;;;;5.88;2.10;;;;;;;;;;5049803;28;20053;-73
2022/10/04 00:26:00;;;;;;;5.15;2.13;;;;;;;;;;5050062;28;20033;-74
2022/10/04 00:28:25;;;;;;;5.65;2.63;;;;;;;;;;5049968;28;20480;-73
2022/10/04 00:31:14;;;;;;;6.22;2.60;;;;;;;;;;5032343;28;20032;-74
2022/10/04 00:33:44;;;;;;;6.25;2.17;;;;;;;;;;5049708;28;20036;-73
2022/10/04 00:36:24;;;;;;;5.63;2.08;;;;;;;;;;5050064;28;20487;-73
2022/10/04 00:39:08;;;;;;;7.53;2.17;;;;;;;;;;5049670;28;20029;-74
2022/10/04 00:41:48;;;;;;;6.38;2.25;;;;;;;;;;5049829;28;20045;-73
2022/10/04 00:44:40;;;;;;;7.47;2.15;;;;;;;;;;5049625;28;20025;-73
2022/10/04 00:47:35;;;;;;;6.65;1.95;;;;;;;;;;5049148;28;20041;-74
2022/10/04 00:50:14;;;;;;;5.35;1.95;;;;;;;;;;5015391;28;20039;-74
2022/10/04 00:52:46;;;;;;;7.10;2.40;;;;;;;;;;5051337;28;20029;-72
2022/10/04 00:55:25;;;;;;;5.30;1.90;;;;;;;;;;5053980;28;20029;-73
2022/10/04 00:57:57;;;;;;;7.50;2.03;;;;;;;;;;5035658;28;20040;-72
2022/10/04 01:00:23;;;;;;;4.68;2.00;;;;;;;;;;5054005;28;20021;-73
2022/10/04 01:02:58;;;;;;;4.22;1.70;;;;;;;;;;5053392;28;20476;-73
2022/10/04 01:05:29;;;;;;;5.50;2.05;;;;;;;;;;5053760;28;20021;-72
2022/10/04 01:08:14;;;;;;;5.25;1.83;;;;;;;;;;5053662;28;20025;-73
2022/10/04 01:10:49;;;;;;;6.28;1.98;;;;;;;;;;5038339;28;20021;-72
2022/10/04 01:13:20;;;;;;;5.75;1.88;;;;;;;;;;5053401;28;20032;-73
2022/10/04 01:16:10;;;;;;;4.07;1.83;;;;;;;;;;5053518;28;20200;-74
2022/10/04 01:18:36;;;;;;;5.00;1.90;;;;;;;;;;5053471;28;20052;-72
2022/10/04 01:21:07;;;;;;;6.20;1.83;;;;;;;;;;5053585;28;20037;-73
2022/10/04 01:23:43;;;;;;;5.40;2.10;;;;;;;;;;5053361;28;20420;-73
2022/10/04 01:26:42;;;;;;;5.05;2.17;;;;;;;;;;5053454;28;20032;-74
2022/10/04 01:29:12;;;;;;;2.92;1.58;;;;;;;;;;5037605;28;20036;-73
2022/10/04 01:31:43;;;;;;;3.95;1.80;;;;;;;;;;5053065;28;20624;-73
2022/10/04 01:34:12;;;;;;;4.82;2.00;;;;;;;;;;5052779;28;20077;-73
2022/10/04 01:36:38;;;;;;;6.20;2.20;;;;;;;;;;5053213;28;20087;-73
2022/10/04 01:39:05;;;;;;;6.20;2.10;;;;;;;;;;5053105;28;20029;-75
2022/10/04 01:41:53;;;;;;;7.18;2.10;;;;;;;;;;5052987;28;20045;-75
2022/10/04 01:44:25;;;;;;;6.13;2.50;;;;;;;;;;5034671;28;20067;-76
2022/10/04 01:46:54;;;;;;;7.82;2.35;;;;;;;;;;5034939;28;20045;-76
2022/10/04 01:49:25;;;;;;;8.18;2.50;;;;;;;;;;5052674;28;20445;-76
2022/10/04 01:52:23;;;;;;;;;;;;;;;;;;5053292;28;20679;-76
2022/10/04 01:55:00;;;;;;;9.32;2.83;;;;;;;;;;5007992;28;19920;-76
2022/10/04 01:57:34;;;;;;;6.28;3.00;;;;;;;;;;5052871;28;20029;-75
2022/10/04 02:00:03;;;;;;;8.27;2.80;;;;;;;;;;5052611;28;20043;-75
2022/10/04 02:02:41;;;;;;;5.50;2.50;;;;;;;;;;5052214;28;20032;-75
2022/10/04 02:05:11;;;;;;;4.75;2.50;;;;;;;;;;5052223;28;20083;-74
2022/10/04 02:07:38;;;;;;;7.27;2.70;;;;;;;;;;5052550;28;20508;-74
2022/10/04 02:10:09;;;;;;;7.78;2.60;;;;;;;;;;5052176;28;20031;-74
2022/10/04 02:12:35;;;;;;;;;;;;;;;;;;5052867;28;20025;-74
2022/10/04 02:15:04;;;;;;;6.65;2.63;;;;;;;;;;5052412;28;19915;-74
2022/10/04 02:17:36;;;;;;;6.05;2.72;;;;;;;;;;5052449;28;20064;-73
2022/10/04 02:20:08;;;;;;;8.20;2.55;;;;;;;;;;5048223;28;20025;-74
2022/10/04 02:22:34;;;;;;;7.35;2.53;;;;;;;;;;5032553;28;20037;-73
2022/10/04 02:25:01;;;;;;;7.93;2.72;;;;;;;;;;5014181;28;20033;-75
2022/10/04 02:27:28;;;;;;;8.32;2.70;;;;;;;;;;5032410;28;20045;-75
2022/10/04 02:30:03;;;;;;;6.50;2.70;;;;;;;;;;5032178;28;20029;-76
2022/10/04 02:35:15;;;;;;;5.82;2.80;;;;;;;;;;5032370;28;20083;-74
2022/10/04 02:37:40;;;;;;;6.50;2.92;;;;;;;;;;5032107;28;20108;-73
2022/10/04 02:40:16;;;;;;;10.13;3.17;;;;;;;;;;5031775;28;20125;-73
2022/10/04 02:43:05;;;;;;;5.82;2.80;;;;;;;;;;5031814;28;20026;-73
2022/10/04 02:45:41;;;;;;;9.00;3.00;;;;;;;;;;5031600;28;20029;-74
2022/10/04 02:48:15;;;;;;;8.55;2.83;;;;;;;;;;5031850;28;20034;-73
2022/10/04 02:50:50;;;;;;;8.38;3.08;;;;;;;;;;5031926;28;20025;-74
2022/10/04 02:53:42;;;;;;;8.27;2.95;;;;;;;;;;5031786;28;20022;-73
2022/10/04 02:56:10;;;;;;;7.75;2.90;;;;;;;;;;4984185;28;20037;-74
2022/10/04 02:58:38;;;;;;;8.20;2.88;;;;;;;;;;5013960;28;20448;-74
2022/10/04 03:01:03;;;;;;;7.05;2.60;;;;;;;;;;5031298;28;20021;-74
2022/10/04 03:03:36;;;;;;;6.82;2.70;;;;;;;;;;5031509;28;20032;-75
2022/10/04 03:06:09;;;;;;;6.90;2.88;;;;;;;;;;5031410;28;20116;-73
2022/10/04 03:08:45;;;;;;;6.80;2.72;;;;;;;;;;5031692;28;20485;-73
2022/10/04 03:11:14;;;;;;;5.30;2.85;;;;;;;;;;5031432;28;20026;-73
2022/10/04 03:13:47;;;;;;;5.95;2.60;;;;;;;;;;5031351;28;20028;-73
2022/10/04 03:16:14;;;;;;;5.47;2.65;;;;;;;;;;5030196;28;20485;-73
2022/10/04 03:18:40;;;;;;;6.38;2.58;;;;;;;;;;5031313;28;20021;-73
2022/10/04 03:21:08;;;;;;;6.40;2.53;;;;;;;;;;5031154;28;20055;-73
2022/10/04 03:23:34;;;;;;;4.57;2.60;;;;;;;;;;5031129;28;20592;-73
2022/10/04 03:26:13;;;;;;;5.85;2.90;;;;;;;;;;5031171;28;20037;-73
2022/10/04 03:28:38;;;;;;;9.98;3.10;;;;;;;;;;5031308;28;20034;-74
2022/10/04 03:31:04;;;;;;;7.25;2.95;;;;;;;;;;5030990;28;20026;-74
2022/10/04 03:33:30;;;;;;;6.05;3.03;;;;;;;;;;5030719;28;20029;-74
2022/10/04 03:35:59;;;;;;;8.93;3.00;;;;;;;;;;5030625;28;20032;-73
2022/10/04 03:38:27;;;;;;;6.38;2.90;;;;;;;;;;5031074;28;20055;-73
2022/10/04 03:41:00;;;;;;;5.15;2.67;;;;;;;;;;5030778;28;20060;-72
2022/10/04 03:43:33;;;;;;;6.15;2.58;;;;;;;;;;5012991;28;20033;-73
2022/10/04 03:46:04;;;;;;;6.90;2.58;;;;;;;;;;5030745;28;20082;-73
2022/10/04 03:48:56;;;;;;;6.55;2.63;;;;;;;;;;5030637;28;20022;-73
2022/10/04 03:51:23;;;;;;;6.00;2.60;;;;;;;;;;5026392;28;20041;-73
2022/10/04 03:53:53;;;;;;;5.97;2.72;;;;;;;;;;5012925;28;20029;-74
2022/10/04 03:56:26;;;;;;;6.55;2.70;;;;;;;;;;5030343;28;20619;-72
2022/10/04 03:58:53;;;;;;;7.57;2.70;;;;;;;;;;5030708;28;20025;-73
2022/10/04 04:01:30;;;;;;;5.53;2.67;;;;;;;;;;5030398;28;20021;-72
2022/10/04 04:04:01;;;;;;;5.18;2.67;;;;;;;;;;5030628;28;20405;-72
2022/10/04 04:06:42;;;;;;;6.20;2.58;;;;;;;;;;5012510;28;20082;-73
2022/10/04 04:09:14;;;;;;;9.73;2.78;;;;;;;;;;5030407;28;20017;-73
2022/10/04 04:11:40;;;;;;;6.50;2.63;;;;;;;;;;5030017;28;20030;-75
2022/10/04 04:14:13;;;;;;;7.03;2.80;;;;;;;;;;5030410;28;20025;-71
2022/10/04 04:16:39;;;;;;;5.82;2.63;;;;;;;;;;5030239;28;20021;-72
2022/10/04 04:19:12;;;;;;;5.07;2.55;;;;;;;;;;5030359;28;20036;-72
2022/10/04 04:21:37;;;;;;;7.47;2.90;;;;;;;;;;5030046;28;20176;-71
2022/10/04 04:24:08;;;;;;;6.95;2.85;;;;;;;;;;5030098;28;20572;-72
2022/10/04 04:26:42;;;;;;;5.57;2.45;;;;;;;;;;5011915;28;20033;-72
2022/10/04 04:29:13;;;;;;;6.05;2.63;;;;;;;;;;5030107;28;20669;-72
2022/10/04 04:31:44;;;;;;;4.32;2.53;;;;;;;;;;5029929;28;20076;-72
2022/10/04 04:34:19;;;;;;;6.63;2.90;;;;;;;;;;5029969;28;20036;-71
2022/10/04 04:36:45;;;;;;;8.27;2.53;;;;;;;;;;5030177;28;20032;-72
2022/10/04 04:39:36;;;;;;;5.80;2.78;;;;;;;;;;5030197;28;20026;-75
2022/10/04 04:42:26;;;;;;;4.50;2.55;;;;;;;;;;5029689;28;20041;-74
2022/10/04 04:44:59;;;;;;;5.13;2.50;;;;;;;;;;5018303;28;20029;-74
2022/10/04 04:47:34;;;;;;;8.77;3.00;;;;;;;;;;5029481;28;20029;-76
2022/10/04 04:50:10;;;;;;;7.55;2.53;;;;;;;;;;5030007;28;20108;-75
2022/10/04 04:52:36;;;;;;;8.07;2.85;;;;;;;;;;5030037;28;20105;-73
2022/10/04 04:55:03;;;;;;;7.80;2.80;;;;;;;;;;5029875;28;20033;-73
2022/10/04 04:57:28;;;;;;;5.72;2.70;;;;;;;;;;5029735;28;20443;-73
2022/10/04 04:59:58;;;;;;;8.65;2.70;;;;;;;;;;5030025;28;20509;-73
2022/10/04 05:02:27;;;;;;;5.30;2.83;;;;;;;;;;5029457;28;20501;-73
2022/10/04 05:05:14;;;;;;;6.32;2.65;;;;;;;;;;5029604;28;20035;-73
2022/10/04 05:07:42;;;;;;;6.88;2.53;;;;;;;;;;5029658;28;20109;-73
2022/10/04 05:10:31;;;;;;;5.95;2.70;;;;;;;;;;5012146;28;20041;-73
2022/10/04 05:12:59;;;;;;;5.63;2.60;;;;;;;;;;5029931;28;20032;-74
2022/10/04 05:15:26;;;;;;;4.00;2.50;;;;;;;;;;5029567;28;20108;-77
2022/10/04 05:17:52;;;;;;;7.05;2.72;;;;;;;;;;5029329;28;20057;-76
2022/10/04 05:20:17;;;;;;;4.93;2.53;;;;;;;;;;5029575;28;20106;-76
2022/10/04 05:22:47;;;;;;;4.70;2.60;;;;;;;;;;5029341;28;20404;-75
2022/10/04 05:25:36;;;;;;;7.70;2.65;;;;;;;;;;5029399;28;20504;-72
2022/10/04 05:28:02;;;;;;;5.95;2.88;;;;;;;;;;5028936;28;20049;-74
2022/10/04 05:30:47;;;;;;;5.38;2.95;;;;;;;;;;5029673;28;20413;-73
2022/10/04 05:33:21;;;;;;;5.18;2.50;;;;;;;;;;5029536;28;20017;-72
2022/10/04 05:36:10;;;;;;;6.65;3.15;;;;;;;;;;5032213;28;20025;-75
2022/10/04 05:38:45;;;;;;;6.80;2.55;;;;;;;;;;5013305;28;20485;-72
2022/10/04 05:41:30;;;;;;;7.35;3.08;;;;;;;;;;5052709;28;20473;-74
2022/10/04 05:43:56;;;;;;;5.75;2.70;;;;;;;;;;5052837;28;20540;-75
2022/10/04 05:46:24;;;;;;;5.97;2.83;;;;;;;;;;5052757;28;20044;-74
2022/10/04 05:48:57;;;;;;;8.07;3.35;;;;;;;;;;5053004;28;20033;-75
2022/10/04 05:51:28;;;;;;;6.82;2.40;;;;;;;;;;5052807;28;20051;-74
2022/10/04 05:53:58;;;;;;;7.10;2.70;;;;;;;;;;5052674;28;20082;-74
2022/10/04 05:56:54;;;;;;;6.10;3.27;;;;;;;;;;5052640;28;20116;-73
2022/10/04 05:59:40;;;;;;;10.52;2.90;;;;;;;;;;5052828;28;20029;-73
2022/10/04 06:02:17;;;;;;;8.60;2.78;;;;;;;;;;5052394;28;20099;-73
2022/10/04 06:05:07;;;;;;;6.78;3.00;;;;;;;;;;5052476;28;20555;-73
2022/10/04 06:07:50;;;;;;;9.85;3.53;;;;;;;;;;5052404;28;20104;-73
2022/10/04 06:10:49;;;;;;;6.05;2.95;;;;;;;;;;5052598;28;20086;-74
2022/10/04 06:13:35;;;;;;;12.98;3.40;;;;;;;;;;5052018;28;20029;-73
2022/10/04 06:16:13;;;;;;;8.70;3.25;;;;;;;;;;5051641;28;20033;-75
2022/10/04 06:19:03;;;;;;;9.32;3.28;;;;;;;;;;5052548;28;20033;-73
2022/10/04 06:21:41;;;;;;;8.63;3.27;;;;;;;;;;5034238;28;20029;-74
2022/10/04 06:24:13;;;;;;;7.30;3.00;;;;;;;;;;5034233;28;20282;-72
2022/10/04 06:26:47;;;;;;;7.63;3.00;;;;;;;;;;5034243;28;20112;-74
2022/10/04 06:29:24;;;;;;;5.93;3.00;;;;;;;;;;5052087;28;20443;-75
2022/10/04 06:32:23;;;;;;;10.00;3.10;;;;;;;;;;5052024;28;20029;-73
2022/10/04 06:35:01;;;;;;;10.05;3.47;;;;;;;;;;5051854;28;20087;-77
2022/10/04 06:37:41;;;;;;;9.18;3.13;;;;;;;;;;5051963;28;20021;-73
2022/10/04 06:40:34;;;;;;;7.75;3.30;;;;;;;;;;5051256;28;20548;-72
2022/10/04 06:43:18;;;;;;;8.80;3.33;;;;;;;;;;5051116;28;20603;-74
2022/10/04 06:46:16;;;;;;;10.10;3.40;;;;;;;;;;5056028;28;20037;-75
2022/10/04 06:49:01;;;;;;;13.10;3.30;;;;;;;;;;5040337;28;20052;-74
2022/10/04 06:52:14;;;;;;;10.15;3.30;;;;;;;;;;5036563;28;20079;-74
2022/10/04 06:55:08;;;;;;;12.68;3.55;;;;;;;;;;4936470;29;20031;-73
2022/10/04 06:57:49;;;;;;;10.15;3.40;;;;;;;;;;4943684;29;20045;-73
2022/10/04 07:00:24;;;;;;;9.40;3.63;;;;;;;;;;5016952;28;20052;-74
2022/10/04 07:03:15;;;;;;;12.85;3.40;;;;;;;;;;5031258;28;20032;-78
2022/10/04 07:05:47;;;;;;;;;;;;;;;;;;5047884;28;20025;-73
2022/10/04 07:08:47;;;;;;;10.65;3.58;;;;;;;;;;5051152;28;19955;-73
2022/10/04 07:11:16;;;;;;;11.35;3.70;;;;;;;;;;5051470;28;20025;-73
2022/10/04 07:13:44;;;;;;;10.07;3.60;;;;;;;;;;5033180;28;20029;-72
2022/10/04 07:16:16;;;;;;;14.35;3.63;;;;;;;;;;5051160;28;20024;-73
2022/10/04 07:19:09;;;;;;;12.48;3.28;;;;;;;;;;5050850;28;20485;-73
2022/10/04 07:21:45;;;;;;;9.13;2.92;;;;;;;;;;5050766;28;20017;-73
2022/10/04 07:24:20;;;;;;;9.25;3.10;;;;;;;;;;5049149;28;20025;-74
2022/10/04 07:26:49;;;;;;;7.72;3.25;;;;;;;;;;5051119;28;20040;-74
2022/10/04 07:29:30;;;;;;;10.30;3.38;;;;;;;;;;5050933;28;20104;-74
2022/10/04 07:32:05;;;;;;;7.93;2.97;;;;;;;;;;5053540;28;20096;-74
2022/10/04 07:34:38;;;;;;;8.82;3.38;;;;;;;;;;5032870;28;20079;-73
2022/10/04 07:37:11;;;;;;;10.85;3.20;;;;;;;;;;5050763;28;20071;-74
2022/10/04 07:39:46;;;;;;;10.00;3.25;;;;;;;;;;5050720;28;20029;-71
2022/10/04 07:42:23;;;;;;;10.05;3.45;;;;;;;;;;5050700;28;20033;-73
2022/10/04 07:44:58;;;;;;;13.38;3.70;;;;;;;;;;5050564;28;20440;-72
2022/10/04 07:47:26;;;;;;;10.80;3.70;;;;;;;;;;5032670;28;20135;-71
2022/10/04 07:49:53;;;;;;;10.68;3.25;;;;;;;;;;5050738;28;20067;-73
2022/10/04 07:52:31;;;;;;;7.68;3.13;;;;;;;;;;5050793;28;20049;-73
2022/10/04 07:55:14;;;;;;;8.82;3.40;;;;;;;;;;5050419;28;20029;-75
2022/10/04 07:57:40;;;;;;;13.30;3.33;;;;;;;;;;5050125;28;20032;-75
2022/10/04 08:00:14;;;;;;;9.32;3.15;;;;;;;;;;5052070;28;20021;-74
2022/10/04 08:03:07;;;;;;;10.07;3.08;;;;;;;;;;5049304;28;20034;-73
2022/10/04 08:05:44;;;;;;;9.73;3.03;;;;;;;;;;5050480;28;20059;-74
2022/10/04 08:08:44;;;;;;;14.50;3.25;;;;;;;;;;5025388;28;20098;-74
2022/10/04 08:11:09;;;;;;;8.13;2.83;;;;;;;;;;5029446;28;20025;-75
2022/10/04 08:13:52;;;;;;;7.88;2.60;;;;;;;;;;5028697;28;20025;-72
2022/10/04 08:16:22;;;;;;;7.90;3.00;;;;;;;;;;5012233;28;20126;-77
2022/10/04 08:19:11;;;;;;;6.20;2.67;;;;;;;;;;5030353;28;20037;-78
2022/10/04 08:22:11;;;;;;;8.80;2.80;;;;;;;;;;5029602;28;20053;-75
2022/10/04 08:24:37;;;;;;;4.50;2.60;;;;;;;;;;4999139;28;20447;-75
2022/10/04 08:27:27;;;;;;;5.80;2.30;;;;;;;;;;5030217;28;20025;-75
2022/10/04 08:30:02;;;;;;;5.63;2.45;;;;;;;;;;5012120;28;20029;-75
2022/10/04 08:33:00;;;;;;;8.57;2.20;;;;;;;;;;5030131;28;20108;-77
2022/10/04 08:35:38;;;;;;;8.13;2.00;;;;;;;;;;5029944;28;20421;-76
2022/10/04 08:38:13;;;;;;;6.70;2.05;;;;;;;;;;5029728;28;20636;-76
2022/10/04 08:41:02;;;;;;;7.18;2.00;;;;;;;;;;5030056;28;20497;-77
2022/10/04 08:43:58;;;;;;;7.53;1.85;;;;;;;;;;5029944;28;20540;-78
2022/10/04 08:46:42;;;;;;;5.00;1.67;;;;;;;;;;5029770;28;20607;-78
2022/10/04 08:49:37;;;;;;;4.78;2.03;;;;;;;;;;5029634;28;20033;-76
2022/10/04 08:52:40;;;;;;;5.50;2.00;;;;;;;;;;5030190;28;20033;-76
2022/10/04 08:55:14;;;;;;;4.65;1.90;;;;;;;;;;5029912;28;20175;-79
2022/10/04 08:57:48;;;;;;;4.28;1.60;;;;;;;;;;5030148;28;20037;-79
2022/10/04 09:00:42;;;;;;;7.28;1.65;;;;;;;;;;5029871;28;20049;-79
2022/10/04 09:03:14;;;;;;;4.18;1.75;;;;;;;;;;5028595;28;20144;-78
2022/10/04 09:05:57;;;;;;;5.75;2.00;;;;;;;;;;5029786;28;20033;-79
2022/10/04 09:08:28;;;;;;;7.22;2.17;;;;;;;;;;5029432;28;20032;-76
2022/10/04 09:11:15;;;;;;;7.15;1.88;;;;;;;;;;5029993;28;20029;-80
2022/10/04 09:13:46;;;;;;;6.05;1.55;;;;;;;;;;5031442;28;20504;-76
2022/10/04 09:16:49;;;;;;;5.85;1.90;;;;;;;;;;5033709;28;20033;-79
2022/10/04 09:19:43;;;;;;;4.30;1.90;;;;;;;;;;5009946;28;20029;-76
2022/10/04 09:22:23;;;;;;;4.05;1.73;;;;;;;;;;5033567;28;20045;-74
2022/10/04 09:25:25;;;;;;;4.07;1.60;;;;;;;;;;5033194;28;20025;-79
2022/10/04 09:28:29;;;;;;;4.03;1.50;;;;;;;;;;5033341;28;20112;-77
2022/10/04 09:31:19;;;;;;;4.10;1.52;;;;;;;;;;5012626;28;20073;-75
2022/10/04 09:33:59;;;;;;;4.23;1.37;;;;;;;;;;5033222;28;20029;-76
2022/10/04 09:37:02;;;;;;;7.43;1.40;;;;;;;;;;5033238;28;20104;-74
2022/10/04 09:40:02;;;;;;;5.75;1.75;;;;;;;;;;5032966;28;20036;-74
2022/10/04 09:42:41;;;;;;;3.88;1.60;;;;;;;;;;5033076;28;20052;-75
2022/10/04 09:45:27;;;;;;;2.70;1.58;;;;;;;;;;5032882;28;20037;-75
2022/10/04 09:48:24;;;;;;;3.92;1.30;;;;;;;;;;5033129;28;20057;-75
2022/10/04 09:51:06;;;;;;;7.80;1.80;;;;;;;;;;5032951;28;20022;-76
2022/10/04 09:53:53;;;;;;;5.05;1.50;;;;;;;;;;5033060;28;20662;-76
2022/10/04 09:56:35;;;;;;;5.30;1.65;;;;;;;;;;5032820;28;20095;-79
2022/10/04 09:59:08;;;;;;;7.30;1.60;;;;;;;;;;5032653;28;20033;-79
2022/10/04 10:01:57;;;;;;;8.13;1.90;;;;;;;;;;5032802;28;20022;-77
2022/10/04 10:04:46;;;;;;;8.93;1.58;;;;;;;;;;5017307;28;20040;-75
2022/10/04 10:07:36;;;;;;;5.07;1.60;;;;;;;;;;5032859;28;20053;-75
2022/10/04 10:13:55;;;;;;;6.35;1.52;;;;;;;;;;5032449;28;20035;-76
2022/10/04 10:16:52;;;;;;;5.68;1.60;;;;;;;;;;4971008;28;20030;-80
2022/10/04 10:19:26;;;;;;;6.03;1.45;;;;;;;;;;5032195;28;20028;-76
2022/10/04 10:22:10;;;;;;;6.15;1.77;;;;;;;;;;5032815;28;20037;-79
2022/10/04 10:25:06;;;;;;;3.97;1.60;;;;;;;;;;5014402;28;20025;-81
2022/10/04 10:27:46;;;;;;;5.30;1.70;;;;;;;;;;5032574;28;20032;-78
2022/10/04 10:30:30;;;;;;;4.38;1.70;;;;;;;;;;5032305;28;20021;-78
2022/10/04 10:33:10;;;;;;;6.40;2.00;;;;;;;;;;5032281;28;20033;-78
2022/10/04 10:36:03;;;;;;;5.15;1.73;;;;;;;;;;5032265;28;20091;-76
2022/10/04 10:38:48;;;;;;;3.78;1.30;;;;;;;;;;5032223;28;20021;-80
2022/10/04 10:41:32;;;;;;;5.28;1.52;;;;;;;;;;5031846;28;20057;-75
2022/10/04 10:44:17;;;;;;;4.88;1.40;;;;;;;;;;5032014;28;20524;-78
2022/10/04 10:46:52;;;;;;;9.82;1.50;;;;;;;;;;5031746;28;20049;-77
2022/10/04 10:49:43;;;;;;;3.28;1.23;;;;;;;;;;5032011;28;20113;-77
2022/10/04 10:52:33;;;;;;;7.13;1.50;;;;;;;;;;5031921;28;20056;-78
2022/10/04 10:55:10;;;;;;;4.43;1.50;;;;;;;;;;5031641;28;20038;-78
2022/10/04 10:58:06;;;;;;;5.30;1.70;;;;;;;;;;5031588;28;20029;-76
2022/10/04 11:01:11;;;;;;;4.65;1.63;;;;;;;;;;5031908;28;20378;-75
2022/10/04 11:04:13;;;;;;;4.60;1.60;;;;;;;;;;5013690;28;20420;-75
2022/10/04 11:07:12;;;;;;;3.75;1.17;;;;;;;;;;4969807;28;20119;-75
2022/10/04 11:09:57;;;;;;;4.07;1.03;;;;;;;;;;5031593;28;20063;-77
2022/10/04 11:12:50;;;;;;;4.55;1.40;;;;;;;;;;5031379;28;20041;-77
2022/10/04 11:15:53;;;;;;;3.53;1.17;;;;;;;;;;5031125;28;20358;-75
2022/10/04 11:18:21;;;;;;;3.17;1.10;;;;;;;;;;5031072;28;20033;-78
2022/10/04 11:21:33;;;;;;;5.28;1.50;;;;;;;;;;5013648;28;20030;-75
2022/10/04 11:24:23;;;;;;;5.28;1.50;;;;;;;;;;5013577;28;20552;-81
2022/10/04 11:27:42;;;;;;;3.47;1.40;;;;;;;;;;5012977;28;20033;-73
2022/10/04 11:30:23;;;;;;;3.33;1.60;;;;;;;;;;4984012;28;20773;-76
2022/10/04 11:33:10;;;;;;;5.82;1.42;;;;;;;;;;5031049;28;20029;-74
2022/10/04 11:36:00;;;;;;;3.60;1.55;;;;;;;;;;5036466;28;20104;-79
2022/10/04 11:38:47;;;;;;;3.90;1.52;;;;;;;;;;5045265;28;20024;-75
2022/10/04 11:41:34;;;;;;;3.17;1.50;;;;;;;;;;5036479;28;20044;-71
2022/10/04 11:44:24;;;;;;;4.45;1.50;;;;;;;;;;5046258;28;20643;-74
2022/10/04 11:46:56;;;;;;;;;;;;;;;;;;5045656;28;20060;-72
2022/10/04 11:49:55;;;;;;;8.27;1.90;;;;;;;;;;5049983;28;19955;-74
2022/10/04 11:52:50;;;;;;;4.05;1.58;;;;;;;;;;5061510;28;20029;-76
2022/10/04 11:55:57;;;;;;;4.95;1.60;;;;;;;;;;5002495;28;20033;-80
2022/10/04 11:58:41;;;;;;;6.28;1.65;;;;;;;;;;5058463;28;20052;-80
2022/10/04 12:01:19;;;;;;;4.55;1.67;;;;;;;;;;5055120;28;20025;-80
2022/10/04 12:04:12;;;;;;;4.75;1.70;;;;;;;;;;5059370;28;20024;-76
2022/10/04 12:06:59;;;;;;;4.03;1.58;;;;;;;;;;5060725;28;20040;-76
2022/10/04 12:09:45;;;;;;;5.75;1.60;;;;;;;;;;5057490;28;20336;-75
2022/10/04 12:12:37;;;;;;;3.60;1.50;;;;;;;;;;5055385;28;20039;-73
2022/10/04 12:15:07;;;;;;;2.58;1.20;;;;;;;;;;5035840;28;20040;-72
2022/10/04 12:18:10;;;;;;;5.88;1.55;;;;;;;;;;5056980;28;20036;-74
2022/10/04 12:20:52;;;;;;;3.17;1.23;;;;;;;;;;5040901;28;20056;-76
2022/10/04 12:23:36;;;;;;;3.50;1.30;;;;;;;;;;5060424;28;20028;-72
2022/10/04 12:26:10;;;;;;;3.58;1.30;;;;;;;;;;5060313;28;20032;-75
2022/10/04 12:29:08;;;;;;;4.32;1.40;;;;;;;;;;5056280;28;20029;-73
2022/10/04 12:31:40;;;;;;;5.03;1.50;;;;;;;;;;4988901;28;20661;-75
2022/10/04 12:34:13;;;;;;;3.63;1.40;;;;;;;;;;5050047;28;20381;-74
2022/10/04 12:36:57;;;;;;;8.63;1.83;;;;;;;;;;5031200;28;20079;-75
2022/10/04 12:39:38;;;;;;;5.22;1.60;;;;;;;;;;5047972;28;20059;-79
2022/10/04 12:42:10;;;;;;;3.90;1.48;;;;;;;;;;5045973;28;20072;-76
2022/10/04 12:44:48;;;;;;;4.43;1.20;;;;;;;;;;5050053;28;20029;-72
2022/10/04 12:47:25;;;;;;;5.18;1.40;;;;;;;;;;5051016;28;20040;-74
2022/10/04 12:50:25;;;;;;;6.18;1.30;;;;;;;;;;5055484;28;20508;-73
2022/10/04 12:52:56;;;;;;;4.10;1.50;;;;;;;;;;5056266;28;20049;-73
2022/10/04 12:55:40;;;;;;;3.90;1.60;;;;;;;;;;5056279;28;20032;-72
2022/10/04 12:58:29;;;;;;;5.03;1.60;;;;;;;;;;5056083;28;20515;-73
2022/10/04 13:01:09;;;;;;;3.15;1.30;;;;;;;;;;5056317;28;20029;-75
2022/10/04 13:03:58;;;;;;;;;;;;;;;;;;5056875;28;20514;-76
2022/10/04 13:06:55;;;;;;;5.90;1.52;;;;;;;;;;5042563;28;19920;-75
2022/10/04 13:09:27;;;;;;;2.90;1.30;;;;;;;;;;5056415;28;20579;-75
2022/10/04 13:12:06;;;;;;;4.18;1.50;;;;;;;;;;5056131;28;20380;-73
2022/10/04 13:14:54;;;;;;;4.32;1.55;;;;;;;;;;5055893;28;20021;-74
2022/10/04 13:17:38;;;;;;;4.97;1.70;;;;;;;;;;5055817;28;20075;-74
2022/10/04 13:20:28;;;;;;;6.03;1.50;;;;;;;;;;5056460;28;20025;-72
2022/10/04 13:23:19;;;;;;;3.65;1.60;;;;;;;;;;5056148;28;20481;-73
2022/10/04 13:26:14;;;;;;;5.97;1.52;;;;;;;;;;5056304;28;20140;-74
2022/10/04 13:28:51;;;;;;;3.50;1.40;;;;;;;;;;5055941;28;20029;-73
2022/10/04 13:31:52;;;;;;;2.28;1.25;;;;;;;;;;5055906;28;20039;-73
2022/10/04 13:34:44;;;;;;;3.05;1.58;;;;;;;;;;5056262;28;20088;-75
2022/10/04 13:37:41;;;;;;;4.07;1.40;;;;;;;;;;5055731;28;20031;-76
2022/10/04 13:40:34;;;;;;;5.40;1.60;;;;;;;;;;5055948;28;20420;-76
2022/10/04 13:43:33;;;;;;;4.95;1.63;;;;;;;;;;5055793;28;20025;-77
2022/10/04 13:46:07;;;;;;;4.65;1.50;;;;;;;;;;5055942;28;20119;-74
2022/10/04 13:48:50;;;;;;;5.00;1.50;;;;;;;;;;5055500;28;20025;-75
2022/10/04 13:51:31;;;;;;;3.58;1.40;;;;;;;;;;5056084;28;20504;-75
2022/10/04 13:57:29;;;;;;;3.47;1.35;;;;;;;;;;5055808;28;20035;-74
2022/10/04 14:00:04;;;;;;;6.10;1.50;;;;;;;;;;5053043;28;20449;-75
2022/10/04 14:02:50;;;;;;;5.93;1.55;;;;;;;;;;5034451;28;20029;-75
2022/10/04 14:05:45;;;;;;;3.03;1.40;;;;;;;;;;5052672;28;20028;-74
2022/10/04 14:08:56;;;;;;;4.43;1.40;;;;;;;;;;5052332;28;20075;-75
2022/10/04 14:11:52;;;;;;;5.25;1.65;;;;;;;;;;5052741;28;20025;-75
2022/10/04 14:14:56;;;;;;;6.32;1.60;;;;;;;;;;5052528;28;20017;-75
2022/10/04 14:17:21;;;;;;;5.18;1.63;;;;;;;;;;5052295;28;20033;-74
2022/10/04 14:20:11;;;;;;;6.03;1.35;;;;;;;;;;5052568;28;20027;-73
2022/10/04 14:22:52;;;;;;;6.18;1.50;;;;;;;;;;5052228;28;20071;-77
2022/10/04 14:25:55;;;;;;;4.57;1.40;;;;;;;;;;5052456;28;20485;-78
2022/10/04 14:29:11;;;;;;;4.35;1.55;;;;;;;;;;5051877;28;20029;-75
2022/10/04 14:32:19;;;;;;;6.43;1.80;;;;;;;;;;4951582;29;20035;-76
2022/10/04 14:34:58;;;;;;;2.45;1.15;;;;;;;;;;4951665;29;20544;-76
2022/10/04 14:37:33;;;;;;;2.83;1.40;;;;;;;;;;5043826;28;20559;-77
2022/10/04 14:40:20;;;;;;;5.13;1.67;;;;;;;;;;5051912;28;20045;-76
2022/10/04 14:42:57;;;;;;;5.45;1.52;;;;;;;;;;5051654;28;20067;-76
2022/10/04 14:45:43;;;;;;;4.65;1.40;;;;;;;;;;5051908;28;20075;-76
2022/10/04 14:48:24;;;;;;;4.93;1.40;;;;;;;;;;5051433;28;20025;-74
2022/10/04 14:51:26;;;;;;;4.13;1.45;;;;;;;;;;5051709;28;20082;-76
2022/10/04 14:54:28;;;;;;;4.25;1.60;;;;;;;;;;5034633;28;20110;-76
2022/10/04 14:57:02;;;;;;;3.63;1.58;;;;;;;;;;5051491;28;20025;-76
2022/10/04 14:59:31;;;;;;;6.00;1.60;;;;;;;;;;5051407;28;20487;-76
2022/10/04 15:02:00;;;;;;;2.38;1.40;;;;;;;;;;5051539;28;20078;-75
2022/10/04 15:04:44;;;;;;;5.95;1.40;;;;;;;;;;5033686;28;20029;-75
2022/10/04 15:07:34;;;;;;;3.08;1.40;;;;;;;;;;5051504;28;20037;-74
2022/10/04 15:10:11;;;;;;;5.23;1.50;;;;;;;;;;5051309;28;20728;-78
2022/10/04 15:12:58;;;;;;;4.88;1.45;;;;;;;;;;5036128;28;20124;-76
2022/10/04 15:15:36;;;;;;;4.30;1.33;;;;;;;;;;5045768;28;20091;-76
2022/10/04 15:18:26;;;;;;;3.67;1.30;;;;;;;;;;5054879;28;20049;-74
2022/10/04 15:21:30;;;;;;;4.32;1.30;;;;;;;;;;5061426;28;20097;-76
2022/10/04 15:24:10;;;;;;;2.05;1.27;;;;;;;;;;5056955;28;20033;-75
2022/10/04 15:27:10;;;;;;;5.75;1.50;;;;;;;;;;5048285;28;20060;-77
2022/10/04 15:30:18;;;;;;;4.85;1.52;;;;;;;;;;5059058;28;20054;-76
2022/10/04 15:33:12;;;;;;;6.03;1.40;;;;;;;;;;5054144;28;20021;-84
2022/10/04 15:35:56;;;;;;;5.18;1.45;;;;;;;;;;5060259;28;20059;-76
2022/10/04 15:38:46;;;;;;;4.45;1.55;;;;;;;;;;5058624;28;20063;-81
2022/10/04 15:41:38;;;;;;;4.05;1.33;;;;;;;;;;5054643;28;20045;-79
2022/10/04 15:44:15;;;;;;;6.03;1.50;;;;;;;;;;4994742;28;20036;-78
2022/10/04 15:47:07;;;;;;;4.13;1.40;;;;;;;;;;5047908;28;20366;-85
2022/10/04 15:49:36;;;;;;;5.70;1.50;;;;;;;;;;5045814;28;20092;-77
2022/10/04 15:52:20;;;;;;;2.75;1.50;;;;;;;;;;5061663;28;20033;-78
2022/10/04 15:55:19;;;;;;;3.55;1.30;;;;;;;;;;5051961;28;20021;-81
2022/10/04 15:58:01;;;;;;;3.80;1.33;;;;;;;;;;5058921;28;20518;-81
2022/10/04 16:00:40;;;;;;;3.95;1.38;;;;;;;;;;5056410;28;20517;-78
2022/10/04 16:03:26;;;;;;;5.53;1.50;;;;;;;;;;5050205;28;20032;-76
2022/10/04 16:06:15;;;;;;;4.78;1.20;;;;;;;;;;5058803;28;20087;-77
2022/10/04 16:09:16;;;;;;;4.50;1.42;;;;;;;;;;5058437;28;20025;-71
2022/10/04 16:12:00;;;;;;;3.70;1.50;;;;;;;;;;5035063;28;20049;-74
2022/10/04 16:14:36;;;;;;;4.60;1.50;;;;;;;;;;5057712;28;20021;-76
2022/10/04 16:17:10;;;;;;;2.80;1.17;;;;;;;;;;5058249;28;20191;-75